createdAt,value
2022-09-03T00:00:33.951Z,1.93
2022-09-03T00:03:43.549Z,1.53
2022-09-03T00:06:53.200Z,1.57
2022-09-03T00:10:01.178Z,11.57
2022-09-03T00:13:08.537Z,2.23
2022-09-03T00:16:17.030Z,2.47
2022-09-03T00:19:23.684Z,2.80
2022-09-03T00:22:31.212Z,2.47
2022-09-03T00:25:39.418Z,6.27
2022-09-03T00:28:48.985Z,2.40
2022-09-03T00:31:54.570Z,3.27
2022-09-03T00:35:02.017Z,4.37
2022-09-03T00:38:05.547Z,4.60
2022-09-03T00:41:17.182Z,3.37
2022-09-03T00:44:50.539Z,5.73
2022-09-03T00:48:08.197Z,4.30
2022-09-03T00:51:20.040Z,6.37
2022-09-03T00:54:33.232Z,6.23
2022-09-03T00:57:47.700Z,3.97
2022-09-03T01:00:53.605Z,3.97
2022-09-03T01:04:08.526Z,6.10
2022-09-03T01:07:18.997Z,4.13
2022-09-03T01:10:32.316Z,2.83
2022-09-03T01:13:40.447Z,5.70
2022-09-03T01:16:52.217Z,2.17
2022-09-03T01:20:18.766Z,3.97
2022-09-03T01:23:50.637Z,2.37
2022-09-03T01:27:19.351Z,2.67
2022-09-03T01:30:24.116Z,3.10
2022-09-03T01:33:32.612Z,5.07
2022-09-03T01:36:41.326Z,3.20
2022-09-03T01:39:56.438Z,2.20
2022-09-03T01:43:16.791Z,5.10
2022-09-03T01:46:26.147Z,4.20
2022-09-03T01:49:36.180Z,3.87
2022-09-03T01:52:46.814Z,3.17
2022-09-03T01:56:06.066Z,4.07
2022-09-03T01:59:21.210Z,4.20
2022-09-03T02:02:27.456Z,4.13
2022-09-03T02:05:30.869Z,3.63
2022-09-03T02:08:33.581Z,6.57
2022-09-03T02:11:37.086Z,2.70
2022-09-03T02:14:40.213Z,2.63
2022-09-03T02:17:49.717Z,3.70
2022-09-03T02:20:54.461Z,2.30
2022-09-03T02:23:57.243Z,3.53
2022-09-03T02:27:00.517Z,3.20
2022-09-03T02:30:03.269Z,3.23
2022-09-03T02:33:07.771Z,4.50
2022-09-03T02:36:13.472Z,3.10
2022-09-03T02:39:17.420Z,3.23
2022-09-03T02:42:20.588Z,3.43
2022-09-03T02:45:29.297Z,7.50
2022-09-03T02:48:33.689Z,1.80
2022-09-03T02:51:40.417Z,3.53
2022-09-03T02:54:46.063Z,1.37
2022-09-03T02:57:48.849Z,2.73
2022-09-03T03:00:51.844Z,2.10
2022-09-03T03:03:55.899Z,2.03
2022-09-03T03:06:59.010Z,1.37
2022-09-03T03:10:02.100Z,1.20
2022-09-03T03:13:04.924Z,2.33
2022-09-03T03:16:07.796Z,1.63
2022-09-03T03:19:12.166Z,1.43
2022-09-03T03:22:15.145Z,2.30
2022-09-03T03:25:18.432Z,1.63
2022-09-03T03:28:21.487Z,3.27
2022-09-03T03:31:25.046Z,4.40
2022-09-03T03:34:29.050Z,6.20
2022-09-03T03:37:32.527Z,3.70
2022-09-03T03:40:35.760Z,4.50
2022-09-03T03:43:39.299Z,5.00
2022-09-03T03:46:43.089Z,4.43
2022-09-03T03:49:47.421Z,4.80
2022-09-03T03:52:50.099Z,1.07
2022-09-03T03:55:57.139Z,1.20
2022-09-03T03:59:00.745Z,4.53
2022-09-03T04:02:03.774Z,2.30
2022-09-03T04:05:08.929Z,3.30
2022-09-03T04:08:13.012Z,1.67
2022-09-03T04:11:18.001Z,2.10
2022-09-03T04:14:20.679Z,3.40
2022-09-03T04:17:25.371Z,1.30
2022-09-03T04:20:29.686Z,2.63
2022-09-03T04:23:32.880Z,3.83
2022-09-03T04:26:36.409Z,2.77
2022-09-03T04:29:39.193Z,1.20
2022-09-03T04:32:54.755Z,4.20
2022-09-03T04:36:08.367Z,2.03
2022-09-03T04:39:11.399Z,2.10
2022-09-03T04:42:14.165Z,1.40
2022-09-03T04:45:18.977Z,3.60
2022-09-03T04:48:21.705Z,2.53
2022-09-03T04:51:27.935Z,2.63
2022-09-03T04:54:30.949Z,4.60
2022-09-03T04:57:37.892Z,2.60
2022-09-03T05:00:41.347Z,1.57
2022-09-03T05:03:44.046Z,2.63
2022-09-03T05:06:48.190Z,1.10
2022-09-03T05:09:50.848Z,2.03
2022-09-03T05:12:59.959Z,2.73
2022-09-03T05:16:04.246Z,5.20
2022-09-03T05:19:08.088Z,6.40
2022-09-03T05:22:12.097Z,5.37
2022-09-03T05:25:14.912Z,2.53
2022-09-03T05:28:17.545Z,3.60
2022-09-03T05:31:22.063Z,1.53
2022-09-03T05:34:24.902Z,1.83
2022-09-03T05:37:28.904Z,2.90
2022-09-03T05:40:32.209Z,1.27
2022-09-03T05:43:35.882Z,2.80
2022-09-03T05:46:38.726Z,1.60
2022-09-03T05:49:41.475Z,2.73
2022-09-03T05:52:45.556Z,5.10
2022-09-03T05:55:56.682Z,1.67
2022-09-03T05:59:02.049Z,3.47
2022-09-03T06:02:05.464Z,3.83
2022-09-03T06:05:08.926Z,2.90
2022-09-03T06:08:12.927Z,1.50
2022-09-03T06:11:15.694Z,3.13
2022-09-03T06:14:19.032Z,2.63
2022-09-03T06:17:21.794Z,2.70
2022-09-03T06:20:29.109Z,5.40
2022-09-03T06:23:34.876Z,4.20
2022-09-03T06:26:40.091Z,2.03
2022-09-03T06:29:45.591Z,2.93
2022-09-03T06:32:50.188Z,3.60
2022-09-03T06:35:57.625Z,2.13
2022-09-03T06:39:01.739Z,2.40
2022-09-03T06:42:05.245Z,1.47
2022-09-03T06:45:10.663Z,5.60
2022-09-03T06:48:15.968Z,5.30
2022-09-03T06:51:20.781Z,3.17
2022-09-03T06:54:25.548Z,4.57
2022-09-03T06:57:28.579Z,3.77
2022-09-03T07:00:31.838Z,2.97
2022-09-03T07:03:35.492Z,4.30
2022-09-03T07:06:40.532Z,2.03
2022-09-03T07:09:48.230Z,3.77
2022-09-03T07:12:51.211Z,2.93
2022-09-03T07:16:00.989Z,1.40
2022-09-03T07:19:04.762Z,4.10
2022-09-03T07:22:07.669Z,2.17
2022-09-03T07:25:11.782Z,3.97
2022-09-03T07:28:14.481Z,3.47
2022-09-03T07:31:20.217Z,7.83
2022-09-03T07:34:27.129Z,3.77
2022-09-03T07:37:29.976Z,1.83
2022-09-03T07:40:34.204Z,3.27
2022-09-03T07:43:40.460Z,4.13
2022-09-03T07:46:43.880Z,5.20
2022-09-03T07:49:46.964Z,4.13
2022-09-03T07:52:56.777Z,2.13
2022-09-03T07:56:04.809Z,1.20
2022-09-03T07:59:08.428Z,2.13
2022-09-03T08:02:11.273Z,1.80
2022-09-03T08:05:14.059Z,7.47
2022-09-03T08:08:17.910Z,2.23
2022-09-03T08:11:22.453Z,3.93
2022-09-03T08:14:26.149Z,4.57
2022-09-03T08:17:29.202Z,5.67
2022-09-03T08:20:32.361Z,3.67
2022-09-03T08:23:38.343Z,4.83
2022-09-03T08:26:50.387Z,4.33
2022-09-03T08:29:54.408Z,4.80
2022-09-03T08:32:57.178Z,2.47
2022-09-03T08:36:00.885Z,3.10
2022-09-03T08:39:09.784Z,3.33
2022-09-03T08:42:29.754Z,11.47
2022-09-03T08:45:35.025Z,6.03
2022-09-03T08:48:37.748Z,15.67
2022-09-03T08:51:42.376Z,10.33
2022-09-03T08:54:45.776Z,10.80
2022-09-03T08:57:52.325Z,6.60
2022-09-03T09:01:02.271Z,7.90
2022-09-03T09:04:16.930Z,6.20
2022-09-03T09:07:27.705Z,5.73
2022-09-03T09:10:38.903Z,6.93
2022-09-03T09:13:51.821Z,4.87
2022-09-03T09:17:03.252Z,5.00
2022-09-03T09:20:16.853Z,4.83
2022-09-03T09:23:27.530Z,5.90
2022-09-03T09:26:31.408Z,6.80
2022-09-03T09:29:37.613Z,4.23
2022-09-03T09:32:40.346Z,5.87
2022-09-03T09:35:43.518Z,5.53
2022-09-03T09:38:48.549Z,4.37
2022-09-03T09:42:08.804Z,8.73
2022-09-03T09:45:13.622Z,4.67
2022-09-03T09:48:26.351Z,12.50
2022-09-03T09:51:32.084Z,5.27
2022-09-03T09:54:36.002Z,4.50
2022-09-03T09:57:39.925Z,7.30
2022-09-03T10:00:56.514Z,5.37
2022-09-03T10:04:10.804Z,4.40
2022-09-03T10:07:30.100Z,4.13
2022-09-03T10:10:37.925Z,5.33
2022-09-03T10:13:45.002Z,13.37
2022-09-03T10:16:55.305Z,7.13
2022-09-03T10:20:27.504Z,8.93
2022-09-03T10:23:34.305Z,10.17
2022-09-03T10:26:38.012Z,9.83
2022-09-03T10:29:42.203Z,14.63
2022-09-03T10:32:59.493Z,13.73
2022-09-03T10:36:12.446Z,15.60
2022-09-03T10:39:24.252Z,20.27
2022-09-03T10:42:39.869Z,17.87
2022-09-03T10:45:53.537Z,17.43
2022-09-03T10:49:15.430Z,16.50
2022-09-03T10:52:27.699Z,11.20
2022-09-03T10:55:41.194Z,5.90
2022-09-03T10:58:58.732Z,5.73
2022-09-03T11:02:18.105Z,10.10
2022-09-03T11:05:29.826Z,11.00
2022-09-03T11:08:37.896Z,10.87
2022-09-03T11:11:46.772Z,9.70
2022-09-03T11:14:58.571Z,8.53
2022-09-03T11:18:17.931Z,9.40
2022-09-03T11:21:25.200Z,5.90
2022-09-03T11:24:33.474Z,8.93
2022-09-03T11:27:56.598Z,8.63
2022-09-03T11:31:18.345Z,11.33
2022-09-03T11:34:32.292Z,9.73
2022-09-03T11:37:54.057Z,4.47
2022-09-03T11:41:01.523Z,3.23
2022-09-03T11:44:18.208Z,5.20
2022-09-03T11:47:24.522Z,7.20
2022-09-03T11:50:29.488Z,6.17
2022-09-03T11:53:37.531Z,9.47
2022-09-03T11:56:41.518Z,8.00
2022-09-03T11:59:45.415Z,4.23
2022-09-03T12:02:54.286Z,8.00
2022-09-03T12:06:23.060Z,6.20
2022-09-03T12:09:54.672Z,3.17
2022-09-03T12:13:06.810Z,6.70
2022-09-03T12:16:40.480Z,6.50
2022-09-03T12:19:51.176Z,8.53
2022-09-03T12:26:06.376Z,3.23
2022-09-03T12:29:23.550Z,3.80
2022-09-03T12:32:36.986Z,6.30
2022-09-03T12:39:12.479Z,2.93
2022-09-03T12:42:26.335Z,3.90
2022-09-03T12:46:09.936Z,3.70
2022-09-03T12:52:30.832Z,4.53
2022-09-03T12:55:37.488Z,2.27
2022-09-03T12:58:48.983Z,3.53
2022-09-03T13:01:54.368Z,3.13
2022-09-03T13:04:57.688Z,4.77
2022-09-03T13:08:07.708Z,4.30
2022-09-03T13:11:10.647Z,3.03
2022-09-03T13:14:18.980Z,4.77
2022-09-03T13:17:39.654Z,4.53
2022-09-03T13:20:55.165Z,1.73
2022-09-03T13:24:10.297Z,2.90
2022-09-03T13:27:21.146Z,2.30
2022-09-03T13:30:37.751Z,1.77
2022-09-03T13:33:45.013Z,1.40
2022-09-03T13:36:52.794Z,2.03
2022-09-03T13:40:00.005Z,2.93
2022-09-03T13:43:06.686Z,1.90
2022-09-03T13:46:19.816Z,1.10
2022-09-03T13:49:52.117Z,1.77
2022-09-03T13:53:00.127Z,3.27
2022-09-03T13:56:08.735Z,1.70
2022-09-03T13:59:20.972Z,1.27
2022-09-03T14:02:38.219Z,1.27
2022-09-03T14:05:51.880Z,1.70
2022-09-03T14:09:08.047Z,2.93
2022-09-03T14:12:17.661Z,2.90
2022-09-03T14:15:29.499Z,2.73
2022-09-03T14:18:41.485Z,2.83
2022-09-03T14:21:49.211Z,2.33
2022-09-03T14:24:56.842Z,1.47
2022-09-03T14:28:16.111Z,1.33
2022-09-03T14:31:29.570Z,1.30
2022-09-03T14:34:44.832Z,1.83
2022-09-03T14:38:16.995Z,1.70
2022-09-03T14:41:57.463Z,3.10
2022-09-03T14:45:19.643Z,2.30
2022-09-03T14:48:43.412Z,3.30
2022-09-03T14:52:03.470Z,2.73
2022-09-03T14:55:22.308Z,2.23
2022-09-03T14:58:38.830Z,1.20
2022-09-03T15:01:43.102Z,1.23
2022-09-03T15:05:01.480Z,1.60
2022-09-03T15:08:15.118Z,0.77
2022-09-03T15:11:22.208Z,1.23
2022-09-03T15:14:30.152Z,2.50
2022-09-03T15:17:47.695Z,1.47
2022-09-03T15:20:52.717Z,1.33
2022-09-03T15:24:08.153Z,1.10
2022-09-03T15:27:29.679Z,0.80
2022-09-03T15:30:38.084Z,0.90
2022-09-03T15:33:49.730Z,1.30
2022-09-03T15:36:57.661Z,1.23
2022-09-03T15:40:07.197Z,2.73
2022-09-03T15:43:16.885Z,1.73
2022-09-03T15:46:41.034Z,1.00
2022-09-03T15:49:56.365Z,1.00
2022-09-03T15:53:06.176Z,0.73
2022-09-03T15:56:19.745Z,1.57
2022-09-03T15:59:27.018Z,1.80
2022-09-03T16:02:34.622Z,1.30
2022-09-03T16:05:43.606Z,0.90
2022-09-03T16:08:53.619Z,1.30
2022-09-03T16:12:09.474Z,1.27
2022-09-03T16:15:17.805Z,1.30
2022-09-03T16:18:31.191Z,1.83
2022-09-03T16:21:43.467Z,2.60
2022-09-03T16:24:51.381Z,1.73
2022-09-03T16:28:07.648Z,1.47
2022-09-03T16:31:21.292Z,6.83
2022-09-03T16:34:35.025Z,2.93
2022-09-03T16:37:51.994Z,2.57
2022-09-03T16:41:02.962Z,3.57
2022-09-03T16:44:14.387Z,3.33
2022-09-03T16:47:27.930Z,2.30
2022-09-03T16:50:46.090Z,1.93
2022-09-03T16:54:05.994Z,4.43
2022-09-03T16:57:21.878Z,2.60
2022-09-03T17:00:36.110Z,3.10
2022-09-03T17:03:51.433Z,2.13
2022-09-03T17:07:07.362Z,2.27
2022-09-03T17:10:23.288Z,3.10
2022-09-03T17:13:47.686Z,2.27
2022-09-03T17:17:05.582Z,3.87
2022-09-03T17:20:14.015Z,6.20
2022-09-03T17:23:33.231Z,1.93
2022-09-03T17:26:47.422Z,1.93
2022-09-03T17:30:11.512Z,1.77
2022-09-03T17:33:56.468Z,2.30
2022-09-03T17:37:09.226Z,3.07
2022-09-03T17:40:29.905Z,3.27
2022-09-03T17:43:46.151Z,3.10
2022-09-03T17:46:59.939Z,2.37
2022-09-03T17:50:15.888Z,2.57
2022-09-03T17:53:26.124Z,2.60
2022-09-03T17:56:34.527Z,3.93
2022-09-03T17:59:45.440Z,3.50
2022-09-03T18:02:59.281Z,2.03
2022-09-03T18:06:09.166Z,1.97
2022-09-03T18:09:26.188Z,3.07
2022-09-03T18:12:38.954Z,2.27
2022-09-03T18:15:51.750Z,2.77
2022-09-03T18:19:01.532Z,2.97
2022-09-03T18:22:24.699Z,2.70
2022-09-03T18:25:48.948Z,4.10
2022-09-03T18:29:16.262Z,3.13
2022-09-03T18:32:36.973Z,3.53
2022-09-03T18:35:58.154Z,3.20
2022-09-03T18:39:30.206Z,4.53
2022-09-03T18:43:03.561Z,3.33
2022-09-03T18:47:54.443Z,3.20
2022-09-03T18:50:22.546Z,1.60
2022-09-03T18:53:52.378Z,1.67
2022-09-03T18:57:16.998Z,2.60
2022-09-03T19:00:37.461Z,2.10
2022-09-03T19:04:07.767Z,1.57
2022-09-03T19:07:42.028Z,1.37
2022-09-03T19:11:07.600Z,2.03
2022-09-03T19:14:51.271Z,1.50
2022-09-03T19:18:35.640Z,1.50
2022-09-03T19:22:04.421Z,1.20
2022-09-03T19:25:29.357Z,1.53
2022-09-03T19:28:55.554Z,4.37
2022-09-03T19:32:23.681Z,4.30
2022-09-03T19:35:51.226Z,1.67
2022-09-03T19:39:25.311Z,1.77
2022-09-03T19:43:00.622Z,2.10
2022-09-03T19:46:29.388Z,1.93
2022-09-03T19:50:01.510Z,5.23
2022-09-03T19:53:25.472Z,2.77
2022-09-03T19:56:47.732Z,1.80
2022-09-03T20:00:09.435Z,3.43
2022-09-03T20:03:32.449Z,5.40
2022-09-03T20:06:55.383Z,2.57
2022-09-03T20:10:21.001Z,2.67
2022-09-03T20:13:24.029Z,3.40
2022-09-03T20:16:33.199Z,3.67
2022-09-03T20:19:50.366Z,4.13
2022-09-03T20:23:00.530Z,2.23
2022-09-03T20:26:15.809Z,2.20
2022-09-03T20:29:54.655Z,1.90
2022-09-03T20:33:23.106Z,2.60
2022-09-03T20:36:39.757Z,1.77
2022-09-03T20:39:53.096Z,3.57
2022-09-03T20:43:09.001Z,1.93
2022-09-03T20:46:27.136Z,3.17
2022-09-03T20:49:38.126Z,2.73
2022-09-03T20:52:53.289Z,2.70
2022-09-03T20:56:03.591Z,1.80
2022-09-03T20:59:16.004Z,2.77
2022-09-03T21:02:29.066Z,2.20
2022-09-03T21:05:35.651Z,2.53
2022-09-03T21:09:04.054Z,3.80
2022-09-03T21:12:17.457Z,1.87
2022-09-03T21:15:27.705Z,4.10
2022-09-03T21:18:40.696Z,3.00
2022-09-03T21:21:56.057Z,4.07
2022-09-03T21:25:04.454Z,4.60
2022-09-03T21:28:14.208Z,3.43
2022-09-03T21:31:22.143Z,1.93
2022-09-03T21:34:30.590Z,2.70
2022-09-03T21:37:37.417Z,2.47
2022-09-03T21:40:47.006Z,2.63
2022-09-03T21:43:57.504Z,4.23
2022-09-03T21:47:06.869Z,2.93
2022-09-03T21:50:18.541Z,3.27
2022-09-03T21:53:31.505Z,3.67
2022-09-03T21:56:51.154Z,4.10
2022-09-03T22:00:20.329Z,3.13
2022-09-03T22:03:25.898Z,4.47
2022-09-03T22:06:37.950Z,2.50
2022-09-03T22:09:46.511Z,2.60
2022-09-03T22:12:55.567Z,5.70
2022-09-03T22:16:07.203Z,2.97
2022-09-03T22:19:10.233Z,2.70
2022-09-03T22:22:19.601Z,4.13
2022-09-03T22:25:31.231Z,5.13
2022-09-03T22:28:41.185Z,3.60
2022-09-03T22:32:00.083Z,2.77
2022-09-03T22:35:28.521Z,4.10
2022-09-03T22:38:55.581Z,2.90
2022-09-03T22:42:16.766Z,7.40
2022-09-03T22:45:31.201Z,4.97
2022-09-03T22:48:51.834Z,2.63
2022-09-03T22:52:10.032Z,3.10
2022-09-03T22:55:20.933Z,2.50
2022-09-03T22:58:28.945Z,2.83
2022-09-03T23:01:37.753Z,2.77
2022-09-03T23:04:51.236Z,5.30
2022-09-03T23:07:58.449Z,4.20
2022-09-03T23:11:06.792Z,4.60
2022-09-03T23:14:12.365Z,4.80
2022-09-03T23:20:31.183Z,5.27
2022-09-03T23:23:39.105Z,6.00
2022-09-03T23:26:44.739Z,5.90
2022-09-03T23:29:52.219Z,3.63
2022-09-03T23:32:58.774Z,4.20
2022-09-03T23:36:31.478Z,4.53
2022-09-03T23:39:55.748Z,6.43
2022-09-03T23:43:18.106Z,3.70
2022-09-03T23:46:26.275Z,3.90
2022-09-03T23:49:39.580Z,4.33
2022-09-03T23:52:57.343Z,3.50
2022-09-03T23:56:25.922Z,4.17
2022-09-03T23:59:41.528Z,3.73
